sensor_id;sensor_type;location;lat;lon;timestamp;P1;durP1;ratioP1;P2;durP2;ratioP2
39196;SDS011;42889;51.112;13.772;2022-07-05T00:01:17;4.80;;;1.00;;
39196;SDS011;42889;51.112;13.772;2022-07-05T00:03:43;3.55;;;1.10;;
39196;SDS011;42889;51.112;13.772;2022-07-05T00:06:10;4.20;;;1.02;;
39196;SDS011;42889;51.112;13.772;2022-07-05T00:08:38;4.05;;;0.90;;
39196;SDS011;42889;51.112;13.772;2022-07-05T00:11:05;2.35;;;1.13;;
39196;SDS011;42889;51.112;13.772;2022-07-05T00:13:32;2.90;;;0.95;;
39196;SDS011;42889;51.112;13.772;2022-07-05T00:15:58;3.78;;;1.05;;
39196;SDS011;42889;51.112;13.772;2022-07-05T00:18:25;2.33;;;1.00;;
39196;SDS011;42889;51.112;13.772;2022-07-05T00:20:52;2.42;;;0.80;;
39196;SDS011;42889;51.112;13.772;2022-07-05T00:23:18;2.13;;;0.90;;
39196;SDS011;42889;51.112;13.772;2022-07-05T00:25:45;3.85;;;1.10;;
39196;SDS011;42889;51.112;13.772;2022-07-05T00:28:11;2.90;;;1.20;;
39196;SDS011;42889;51.112;13.772;2022-07-05T00:30:39;4.63;;;1.30;;
39196;SDS011;42889;51.112;13.772;2022-07-05T00:33:06;2.22;;;1.20;;
39196;SDS011;42889;51.112;13.772;2022-07-05T00:35:33;2.45;;;1.23;;
39196;SDS011;42889;51.112;13.772;2022-07-05T00:38:00;2.53;;;1.00;;
39196;SDS011;42889;51.112;13.772;2022-07-05T00:40:26;2.38;;;1.17;;
39196;SDS011;42889;51.112;13.772;2022-07-05T00:42:53;2.30;;;1.05;;
39196;SDS011;42889;51.112;13.772;2022-07-05T00:45:19;2.40;;;1.10;;
39196;SDS011;42889;51.112;13.772;2022-07-05T00:47:47;3.47;;;1.33;;
39196;SDS011;42889;51.112;13.772;2022-07-05T00:50:14;4.30;;;1.20;;
39196;SDS011;42889;51.112;13.772;2022-07-05T00:52:40;2.97;;;1.40;;
39196;SDS011;42889;51.112;13.772;2022-07-05T00:55:07;2.33;;;1.20;;
39196;SDS011;42889;51.112;13.772;2022-07-05T00:57:35;2.83;;;1.30;;
39196;SDS011;42889;51.112;13.772;2022-07-05T01:00:02;3.92;;;1.20;;
39196;SDS011;42889;51.112;13.772;2022-07-05T01:02:30;3.33;;;1.00;;
39196;SDS011;42889;51.112;13.772;2022-07-05T01:04:57;4.45;;;1.63;;
39196;SDS011;42889;51.112;13.772;2022-07-05T01:07:24;2.85;;;1.35;;
39196;SDS011;42889;51.112;13.772;2022-07-05T01:09:51;2.25;;;1.23;;
39196;SDS011;42889;51.112;13.772;2022-07-05T01:12:18;3.63;;;1.27;;
39196;SDS011;42889;51.112;13.772;2022-07-05T01:14:45;2.58;;;1.17;;
39196;SDS011;42889;51.112;13.772;2022-07-05T01:17:13;3.75;;;1.42;;
39196;SDS011;42889;51.112;13.772;2022-07-05T01:19:40;2.80;;;1.30;;
39196;SDS011;42889;51.112;13.772;2022-07-05T01:22:11;2.38;;;1.27;;
39196;SDS011;42889;51.112;13.772;2022-07-05T01:24:42;2.60;;;1.20;;
39196;SDS011;42889;51.112;13.772;2022-07-05T01:27:09;2.78;;;1.40;;
39196;SDS011;42889;51.112;13.772;2022-07-05T01:29:36;2.08;;;1.60;;
39196;SDS011;42889;51.112;13.772;2022-07-05T01:32:03;3.80;;;1.45;;
39196;SDS011;42889;51.112;13.772;2022-07-05T01:34:30;3.10;;;1.15;;
39196;SDS011;42889;51.112;13.772;2022-07-05T01:36:56;2.40;;;1.67;;
39196;SDS011;42889;51.112;13.772;2022-07-05T01:39:23;4.65;;;1.50;;
39196;SDS011;42889;51.112;13.772;2022-07-05T01:41:49;3.92;;;1.63;;
39196;SDS011;42889;51.112;13.772;2022-07-05T01:44:16;3.95;;;1.55;;
39196;SDS011;42889;51.112;13.772;2022-07-05T01:46:42;2.78;;;1.48;;
39196;SDS011;42889;51.112;13.772;2022-07-05T01:49:11;4.40;;;1.42;;
39196;SDS011;42889;51.112;13.772;2022-07-05T01:51:51;4.33;;;1.80;;
39196;SDS011;42889;51.112;13.772;2022-07-05T01:54:21;2.85;;;1.60;;
39196;SDS011;42889;51.112;13.772;2022-07-05T01:56:47;5.18;;;1.60;;
39196;SDS011;42889;51.112;13.772;2022-07-05T01:59:14;4.45;;;2.08;;
39196;SDS011;42889;51.112;13.772;2022-07-05T02:01:41;3.58;;;1.58;;
39196;SDS011;42889;51.112;13.772;2022-07-05T02:04:08;2.78;;;1.85;;
39196;SDS011;42889;51.112;13.772;2022-07-05T02:06:36;4.25;;;1.85;;
39196;SDS011;42889;51.112;13.772;2022-07-05T02:09:04;3.15;;;1.60;;
39196;SDS011;42889;51.112;13.772;2022-07-05T02:11:32;3.40;;;1.90;;
39196;SDS011;42889;51.112;13.772;2022-07-05T02:13:58;2.55;;;1.60;;
39196;SDS011;42889;51.112;13.772;2022-07-05T02:16:25;2.92;;;1.80;;
39196;SDS011;42889;51.112;13.772;2022-07-05T02:18:53;2.28;;;1.50;;
39196;SDS011;42889;51.112;13.772;2022-07-05T02:21:20;2.50;;;1.83;;
39196;SDS011;42889;51.112;13.772;2022-07-05T02:23:47;5.88;;;2.10;;
39196;SDS011;42889;51.112;13.772;2022-07-05T02:26:14;2.70;;;1.73;;
39196;SDS011;42889;51.112;13.772;2022-07-05T02:28:40;7.13;;;2.33;;
39196;SDS011;42889;51.112;13.772;2022-07-05T02:31:07;4.97;;;2.00;;
39196;SDS011;42889;51.112;13.772;2022-07-05T02:33:34;3.80;;;1.65;;
39196;SDS011;42889;51.112;13.772;2022-07-05T02:36:07;4.85;;;2.10;;
39196;SDS011;42889;51.112;13.772;2022-07-05T02:38:36;3.15;;;1.77;;
39196;SDS011;42889;51.112;13.772;2022-07-05T02:41:06;2.97;;;1.90;;
39196;SDS011;42889;51.112;13.772;2022-07-05T02:43:34;5.13;;;2.00;;
39196;SDS011;42889;51.112;13.772;2022-07-05T02:46:01;4.45;;;1.90;;
39196;SDS011;42889;51.112;13.772;2022-07-05T02:48:29;2.63;;;1.70;;
39196;SDS011;42889;51.112;13.772;2022-07-05T02:50:56;3.00;;;2.00;;
39196;SDS011;42889;51.112;13.772;2022-07-05T02:53:23;3.75;;;2.15;;
39196;SDS011;42889;51.112;13.772;2022-07-05T02:55:51;3.92;;;1.90;;
39196;SDS011;42889;51.112;13.772;2022-07-05T02:58:17;4.18;;;1.90;;
39196;SDS011;42889;51.112;13.772;2022-07-05T03:00:44;5.32;;;1.90;;
39196;SDS011;42889;51.112;13.772;2022-07-05T03:03:15;6.60;;;2.50;;
39196;SDS011;42889;51.112;13.772;2022-07-05T03:05:42;3.78;;;2.35;;
39196;SDS011;42889;51.112;13.772;2022-07-05T03:08:09;3.13;;;2.10;;
39196;SDS011;42889;51.112;13.772;2022-07-05T03:10:36;4.47;;;2.22;;
39196;SDS011;42889;51.112;13.772;2022-07-05T03:13:03;3.58;;;2.10;;
39196;SDS011;42889;51.112;13.772;2022-07-05T03:15:30;4.15;;;1.92;;
39196;SDS011;42889;51.112;13.772;2022-07-05T03:17:56;4.03;;;1.95;;
39196;SDS011;42889;51.112;13.772;2022-07-05T03:20:23;4.07;;;1.90;;
39196;SDS011;42889;51.112;13.772;2022-07-05T03:22:50;3.45;;;2.08;;
39196;SDS011;42889;51.112;13.772;2022-07-05T03:25:17;4.53;;;2.28;;
39196;SDS011;42889;51.112;13.772;2022-07-05T03:27:44;4.15;;;2.28;;
39196;SDS011;42889;51.112;13.772;2022-07-05T03:30:12;3.97;;;2.80;;
39196;SDS011;42889;51.112;13.772;2022-07-05T03:32:39;4.65;;;2.38;;
39196;SDS011;42889;51.112;13.772;2022-07-05T03:35:05;5.03;;;2.15;;
39196;SDS011;42889;51.112;13.772;2022-07-05T03:37:32;8.40;;;2.35;;
39196;SDS011;42889;51.112;13.772;2022-07-05T03:39:59;3.67;;;2.10;;
39196;SDS011;42889;51.112;13.772;2022-07-05T03:42:25;5.38;;;2.35;;
39196;SDS011;42889;51.112;13.772;2022-07-05T03:44:52;4.32;;;2.28;;
39196;SDS011;42889;51.112;13.772;2022-07-05T03:47:19;4.68;;;2.42;;
39196;SDS011;42889;51.112;13.772;2022-07-05T03:49:46;3.03;;;1.98;;
39196;SDS011;42889;51.112;13.772;2022-07-05T03:52:13;3.45;;;2.08;;
39196;SDS011;42889;51.112;13.772;2022-07-05T03:54:40;2.92;;;2.20;;
39196;SDS011;42889;51.112;13.772;2022-07-05T03:57:06;2.90;;;2.10;;
39196;SDS011;42889;51.112;13.772;2022-07-05T03:59:33;4.95;;;2.13;;
39196;SDS011;42889;51.112;13.772;2022-07-05T04:02:00;2.80;;;2.10;;
39196;SDS011;42889;51.112;13.772;2022-07-05T04:04:26;3.63;;;2.13;;
39196;SDS011;42889;51.112;13.772;2022-07-05T04:06:53;2.70;;;1.75;;
39196;SDS011;42889;51.112;13.772;2022-07-05T04:09:20;3.70;;;2.13;;
39196;SDS011;42889;51.112;13.772;2022-07-05T04:11:46;4.90;;;2.25;;
39196;SDS011;42889;51.112;13.772;2022-07-05T04:14:13;3.40;;;2.10;;
39196;SDS011;42889;51.112;13.772;2022-07-05T04:16:40;3.42;;;2.13;;
39196;SDS011;42889;51.112;13.772;2022-07-05T04:19:06;3.70;;;2.30;;
39196;SDS011;42889;51.112;13.772;2022-07-05T04:21:33;6.03;;;2.28;;
39196;SDS011;42889;51.112;13.772;2022-07-05T04:24:00;4.00;;;1.98;;
39196;SDS011;42889;51.112;13.772;2022-07-05T04:26:26;5.75;;;2.20;;
39196;SDS011;42889;51.112;13.772;2022-07-05T04:28:53;4.45;;;2.30;;
39196;SDS011;42889;51.112;13.772;2022-07-05T04:31:22;3.97;;;2.40;;
39196;SDS011;42889;51.112;13.772;2022-07-05T04:33:49;4.97;;;2.30;;
39196;SDS011;42889;51.112;13.772;2022-07-05T04:36:16;5.07;;;2.30;;
39196;SDS011;42889;51.112;13.772;2022-07-05T04:38:43;5.75;;;2.55;;
39196;SDS011;42889;51.112;13.772;2022-07-05T04:41:10;3.47;;;2.25;;
39196;SDS011;42889;51.112;13.772;2022-07-05T04:43:36;4.57;;;2.17;;
39196;SDS011;42889;51.112;13.772;2022-07-05T04:46:03;2.40;;;1.90;;
39196;SDS011;42889;51.112;13.772;2022-07-05T04:48:30;5.93;;;2.47;;
39196;SDS011;42889;51.112;13.772;2022-07-05T04:50:57;6.70;;;2.35;;
39196;SDS011;42889;51.112;13.772;2022-07-05T04:53:24;3.35;;;1.83;;
39196;SDS011;42889;51.112;13.772;2022-07-05T04:55:50;3.03;;;1.90;;
39196;SDS011;42889;51.112;13.772;2022-07-05T04:58:17;5.18;;;2.10;;
39196;SDS011;42889;51.112;13.772;2022-07-05T05:00:44;6.25;;;1.50;;
39196;SDS011;42889;51.112;13.772;2022-07-05T05:03:11;4.20;;;1.50;;
39196;SDS011;42889;51.112;13.772;2022-07-05T05:05:37;3.38;;;1.58;;
39196;SDS011;42889;51.112;13.772;2022-07-05T05:08:04;5.30;;;1.65;;
39196;SDS011;42889;51.112;13.772;2022-07-05T05:10:30;2.63;;;1.38;;
39196;SDS011;42889;51.112;13.772;2022-07-05T05:12:57;3.80;;;1.35;;
39196;SDS011;42889;51.112;13.772;2022-07-05T05:15:23;5.05;;;1.20;;
39196;SDS011;42889;51.112;13.772;2022-07-05T05:17:50;3.33;;;1.42;;
39196;SDS011;42889;51.112;13.772;2022-07-05T05:20:17;4.43;;;1.27;;
39196;SDS011;42889;51.112;13.772;2022-07-05T05:22:44;2.88;;;1.30;;
39196;SDS011;42889;51.112;13.772;2022-07-05T05:25:12;3.35;;;1.15;;
39196;SDS011;42889;51.112;13.772;2022-07-05T05:27:42;2.92;;;1.40;;
39196;SDS011;42889;51.112;13.772;2022-07-05T05:30:14;2.97;;;1.10;;
39196;SDS011;42889;51.112;13.772;2022-07-05T05:32:42;3.88;;;1.33;;
39196;SDS011;42889;51.112;13.772;2022-07-05T05:35:09;2.72;;;1.13;;
39196;SDS011;42889;51.112;13.772;2022-07-05T05:37:52;3.55;;;1.30;;
39196;SDS011;42889;51.112;13.772;2022-07-05T05:40:21;2.42;;;1.20;;
39196;SDS011;42889;51.112;13.772;2022-07-05T05:42:49;5.35;;;1.25;;
39196;SDS011;42889;51.112;13.772;2022-07-05T05:45:17;2.92;;;1.10;;
39196;SDS011;42889;51.112;13.772;2022-07-05T05:47:51;2.40;;;1.15;;
39196;SDS011;42889;51.112;13.772;2022-07-05T05:50:20;3.45;;;1.17;;
39196;SDS011;42889;51.112;13.772;2022-07-05T05:52:48;2.65;;;1.10;;
39196;SDS011;42889;51.112;13.772;2022-07-05T05:55:16;3.00;;;1.33;;
39196;SDS011;42889;51.112;13.772;2022-07-05T05:57:43;2.60;;;1.00;;
39196;SDS011;42889;51.112;13.772;2022-07-05T06:00:10;3.85;;;1.17;;
39196;SDS011;42889;51.112;13.772;2022-07-05T06:02:37;3.17;;;1.10;;
39196;SDS011;42889;51.112;13.772;2022-07-05T06:05:05;4.47;;;1.00;;
39196;SDS011;42889;51.112;13.772;2022-07-05T06:07:43;2.65;;;1.00;;
39196;SDS011;42889;51.112;13.772;2022-07-05T06:10:09;3.05;;;1.10;;
39196;SDS011;42889;51.112;13.772;2022-07-05T06:12:36;4.38;;;1.00;;
39196;SDS011;42889;51.112;13.772;2022-07-05T06:15:03;3.30;;;1.08;;
39196;SDS011;42889;51.112;13.772;2022-07-05T06:17:35;3.97;;;1.35;;
39196;SDS011;42889;51.112;13.772;2022-07-05T06:20:08;2.42;;;0.90;;
39196;SDS011;42889;51.112;13.772;2022-07-05T06:22:36;3.60;;;1.08;;
39196;SDS011;42889;51.112;13.772;2022-07-05T06:25:03;2.53;;;0.88;;
39196;SDS011;42889;51.112;13.772;2022-07-05T06:27:49;2.40;;;1.00;;
39196;SDS011;42889;51.112;13.772;2022-07-05T06:30:17;4.13;;;1.10;;
39196;SDS011;42889;51.112;13.772;2022-07-05T06:32:46;5.25;;;1.17;;
39196;SDS011;42889;51.112;13.772;2022-07-05T06:35:14;2.17;;;0.85;;
39196;SDS011;42889;51.112;13.772;2022-07-05T06:37:46;3.65;;;0.90;;
39196;SDS011;42889;51.112;13.772;2022-07-05T06:40:14;3.58;;;1.05;;
39196;SDS011;42889;51.112;13.772;2022-07-05T06:42:44;5.38;;;1.00;;
39196;SDS011;42889;51.112;13.772;2022-07-05T06:45:11;5.38;;;1.00;;
39196;SDS011;42889;51.112;13.772;2022-07-05T06:47:38;5.00;;;1.17;;
39196;SDS011;42889;51.112;13.772;2022-07-05T06:50:05;5.75;;;1.00;;
39196;SDS011;42889;51.112;13.772;2022-07-05T06:52:33;3.03;;;0.73;;
39196;SDS011;42889;51.112;13.772;2022-07-05T06:54:59;2.60;;;0.75;;
39196;SDS011;42889;51.112;13.772;2022-07-05T06:57:27;4.07;;;0.75;;
39196;SDS011;42889;51.112;13.772;2022-07-05T06:59:56;3.70;;;1.13;;
39196;SDS011;42889;51.112;13.772;2022-07-05T07:02:24;4.80;;;1.10;;
39196;SDS011;42889;51.112;13.772;2022-07-05T07:04:51;2.03;;;0.70;;
39196;SDS011;42889;51.112;13.772;2022-07-05T07:07:36;2.78;;;0.73;;
39196;SDS011;42889;51.112;13.772;2022-07-05T07:10:21;5.45;;;0.63;;
39196;SDS011;42889;51.112;13.772;2022-07-05T07:12:54;3.03;;;0.70;;
39196;SDS011;42889;51.112;13.772;2022-07-05T07:15:21;2.88;;;0.70;;
39196;SDS011;42889;51.112;13.772;2022-07-05T07:17:47;3.63;;;0.70;;
39196;SDS011;42889;51.112;13.772;2022-07-05T07:20:14;3.83;;;0.70;;
39196;SDS011;42889;51.112;13.772;2022-07-05T07:22:40;2.25;;;0.60;;
39196;SDS011;42889;51.112;13.772;2022-07-05T07:25:07;5.13;;;0.60;;
39196;SDS011;42889;51.112;13.772;2022-07-05T07:27:44;2.05;;;0.70;;
39196;SDS011;42889;51.112;13.772;2022-07-05T07:30:16;1.73;;;0.43;;
39196;SDS011;42889;51.112;13.772;2022-07-05T07:32:46;1.65;;;0.50;;
39196;SDS011;42889;51.112;13.772;2022-07-05T07:35:13;2.60;;;0.40;;
39196;SDS011;42889;51.112;13.772;2022-07-05T07:37:40;1.75;;;0.55;;
39196;SDS011;42889;51.112;13.772;2022-07-05T07:40:07;2.08;;;0.50;;
39196;SDS011;42889;51.112;13.772;2022-07-05T07:42:34;3.13;;;0.50;;
39196;SDS011;42889;51.112;13.772;2022-07-05T07:45:02;1.50;;;0.50;;
39196;SDS011;42889;51.112;13.772;2022-07-05T07:47:31;2.83;;;0.50;;
39196;SDS011;42889;51.112;13.772;2022-07-05T07:49:58;2.92;;;0.40;;
39196;SDS011;42889;51.112;13.772;2022-07-05T07:52:25;2.30;;;0.40;;
39196;SDS011;42889;51.112;13.772;2022-07-05T07:54:51;1.48;;;0.38;;
39196;SDS011;42889;51.112;13.772;2022-07-05T07:57:18;1.98;;;0.40;;
39196;SDS011;42889;51.112;13.772;2022-07-05T07:59:44;1.45;;;0.30;;
39196;SDS011;42889;51.112;13.772;2022-07-05T08:02:11;3.40;;;0.40;;
39196;SDS011;42889;51.112;13.772;2022-07-05T08:04:38;5.75;;;0.38;;
39196;SDS011;42889;51.112;13.772;2022-07-05T08:07:04;1.73;;;0.30;;
39196;SDS011;42889;51.112;13.772;2022-07-05T08:09:31;3.13;;;0.40;;
39196;SDS011;42889;51.112;13.772;2022-07-05T08:11:57;1.88;;;0.45;;
39196;SDS011;42889;51.112;13.772;2022-07-05T08:14:23;2.78;;;0.32;;
39196;SDS011;42889;51.112;13.772;2022-07-05T08:16:50;2.30;;;0.40;;
39196;SDS011;42889;51.112;13.772;2022-07-05T08:19:18;1.05;;;0.30;;
39196;SDS011;42889;51.112;13.772;2022-07-05T08:22:04;2.60;;;0.30;;
39196;SDS011;42889;51.112;13.772;2022-07-05T08:24:34;1.20;;;0.30;;
39196;SDS011;42889;51.112;13.772;2022-07-05T08:27:06;1.70;;;0.30;;
39196;SDS011;42889;51.112;13.772;2022-07-05T08:29:33;2.22;;;0.40;;
39196;SDS011;42889;51.112;13.772;2022-07-05T08:32:00;3.08;;;0.60;;
39196;SDS011;42889;51.112;13.772;2022-07-05T08:34:27;1.60;;;0.30;;
39196;SDS011;42889;51.112;13.772;2022-07-05T08:36:53;3.08;;;0.40;;
39196;SDS011;42889;51.112;13.772;2022-07-05T08:39:20;1.73;;;0.40;;
39196;SDS011;42889;51.112;13.772;2022-07-05T08:41:48;1.75;;;0.35;;
39196;SDS011;42889;51.112;13.772;2022-07-05T08:44:19;2.67;;;0.35;;
39196;SDS011;42889;51.112;13.772;2022-07-05T08:46:48;1.85;;;0.50;;
39196;SDS011;42889;51.112;13.772;2022-07-05T08:49:27;3.20;;;0.30;;
39196;SDS011;42889;51.112;13.772;2022-07-05T08:51:54;2.35;;;0.40;;
39196;SDS011;42889;51.112;13.772;2022-07-05T08:54:22;4.55;;;0.30;;
39196;SDS011;42889;51.112;13.772;2022-07-05T08:56:50;0.95;;;0.20;;
39196;SDS011;42889;51.112;13.772;2022-07-05T08:59:36;1.70;;;0.30;;
39196;SDS011;42889;51.112;13.772;2022-07-05T09:02:03;1.88;;;0.40;;
39196;SDS011;42889;51.112;13.772;2022-07-05T09:04:31;3.42;;;0.25;;
39196;SDS011;42889;51.112;13.772;2022-07-05T09:07:03;0.65;;;0.20;;
39196;SDS011;42889;51.112;13.772;2022-07-05T09:09:34;2.47;;;0.40;;
39196;SDS011;42889;51.112;13.772;2022-07-05T09:12:11;2.55;;;0.30;;
39196;SDS011;42889;51.112;13.772;2022-07-05T09:14:50;0.82;;;0.20;;
39196;SDS011;42889;51.112;13.772;2022-07-05T09:17:17;3.58;;;0.30;;
39196;SDS011;42889;51.112;13.772;2022-07-05T09:19:43;1.30;;;0.20;;
39196;SDS011;42889;51.112;13.772;2022-07-05T09:22:41;1.48;;;0.30;;
39196;SDS011;42889;51.112;13.772;2022-07-05T09:25:24;1.52;;;0.25;;
39196;SDS011;42889;51.112;13.772;2022-07-05T09:27:52;4.55;;;0.30;;
39196;SDS011;42889;51.112;13.772;2022-07-05T09:32:59;1.58;;;0.20;;
39196;SDS011;42889;51.112;13.772;2022-07-05T09:35:28;1.95;;;0.20;;
39196;SDS011;42889;51.112;13.772;2022-07-05T09:37:56;2.03;;;0.20;;
39196;SDS011;42889;51.112;13.772;2022-07-05T09:40:22;3.75;;;0.28;;
39196;SDS011;42889;51.112;13.772;2022-07-05T09:42:49;1.60;;;0.20;;
39196;SDS011;42889;51.112;13.772;2022-07-05T09:45:21;1.33;;;0.20;;
39196;SDS011;42889;51.112;13.772;2022-07-05T09:47:53;4.75;;;0.22;;
39196;SDS011;42889;51.112;13.772;2022-07-05T09:50:41;1.00;;;0.20;;
39196;SDS011;42889;51.112;13.772;2022-07-05T09:53:45;4.80;;;0.40;;
39196;SDS011;42889;51.112;13.772;2022-07-05T09:56:13;3.03;;;0.20;;
39196;SDS011;42889;51.112;13.772;2022-07-05T09:58:40;1.13;;;0.10;;
39196;SDS011;42889;51.112;13.772;2022-07-05T10:03:57;2.90;;;0.20;;
39196;SDS011;42889;51.112;13.772;2022-07-05T10:06:28;1.50;;;0.20;;
39196;SDS011;42889;51.112;13.772;2022-07-05T10:11:24;2.33;;;0.25;;
39196;SDS011;42889;51.112;13.772;2022-07-05T10:13:55;2.92;;;0.47;;
39196;SDS011;42889;51.112;13.772;2022-07-05T10:16:24;4.55;;;0.20;;
39196;SDS011;42889;51.112;13.772;2022-07-05T10:18:51;1.73;;;0.20;;
39196;SDS011;42889;51.112;13.772;2022-07-05T10:21:19;2.58;;;0.20;;
39196;SDS011;42889;51.112;13.772;2022-07-05T10:23:47;3.83;;;0.30;;
39196;SDS011;42889;51.112;13.772;2022-07-05T10:26:15;1.15;;;0.20;;
39196;SDS011;42889;51.112;13.772;2022-07-05T10:28:46;3.38;;;0.20;;
39196;SDS011;42889;51.112;13.772;2022-07-05T10:31:15;3.20;;;0.20;;
39196;SDS011;42889;51.112;13.772;2022-07-05T10:33:43;1.10;;;0.20;;
39196;SDS011;42889;51.112;13.772;2022-07-05T10:36:11;2.63;;;0.20;;
39196;SDS011;42889;51.112;13.772;2022-07-05T10:38:41;1.92;;;0.20;;
39196;SDS011;42889;51.112;13.772;2022-07-05T10:41:11;2.22;;;0.28;;
39196;SDS011;42889;51.112;13.772;2022-07-05T10:43:43;1.95;;;0.30;;
39196;SDS011;42889;51.112;13.772;2022-07-05T10:46:10;2.28;;;0.20;;
39196;SDS011;42889;51.112;13.772;2022-07-05T10:48:36;1.55;;;0.40;;
39196;SDS011;42889;51.112;13.772;2022-07-05T10:58:41;2.65;;;0.30;;
39196;SDS011;42889;51.112;13.772;2022-07-05T11:11:44;3.85;;;0.30;;
39196;SDS011;42889;51.112;13.772;2022-07-05T11:14:37;1.83;;;0.22;;
39196;SDS011;42889;51.112;13.772;2022-07-05T11:19:58;3.58;;;0.20;;
39196;SDS011;42889;51.112;13.772;2022-07-05T11:22:26;2.35;;;0.30;;
39196;SDS011;42889;51.112;13.772;2022-07-05T11:24:53;1.92;;;0.30;;
39196;SDS011;42889;51.112;13.772;2022-07-05T11:27:21;1.75;;;0.20;;
39196;SDS011;42889;51.112;13.772;2022-07-05T11:29:51;3.45;;;0.20;;
39196;SDS011;42889;51.112;13.772;2022-07-05T11:32:21;1.63;;;0.20;;
39196;SDS011;42889;51.112;13.772;2022-07-05T11:34:48;2.47;;;0.22;;
39196;SDS011;42889;51.112;13.772;2022-07-05T11:42:57;2.30;;;0.30;;
39196;SDS011;42889;51.112;13.772;2022-07-05T11:45:23;0.80;;;0.10;;
39196;SDS011;42889;51.112;13.772;2022-07-05T11:47:51;1.42;;;0.20;;
39196;SDS011;42889;51.112;13.772;2022-07-05T11:50:26;1.52;;;0.20;;
39196;SDS011;42889;51.112;13.772;2022-07-05T11:52:57;0.85;;;0.20;;
39196;SDS011;42889;51.112;13.772;2022-07-05T11:55:30;1.80;;;0.20;;
39196;SDS011;42889;51.112;13.772;2022-07-05T11:57:57;2.92;;;0.30;;
39196;SDS011;42889;51.112;13.772;2022-07-05T12:00:28;1.40;;;0.17;;
39196;SDS011;42889;51.112;13.772;2022-07-05T12:02:56;1.77;;;0.10;;
39196;SDS011;42889;51.112;13.772;2022-07-05T12:05:28;3.45;;;0.30;;
39196;SDS011;42889;51.112;13.772;2022-07-05T12:07:55;4.75;;;0.30;;
39196;SDS011;42889;51.112;13.772;2022-07-05T12:10:22;3.65;;;0.30;;
39196;SDS011;42889;51.112;13.772;2022-07-05T12:13:27;3.63;;;0.20;;
39196;SDS011;42889;51.112;13.772;2022-07-05T12:16:00;3.28;;;0.20;;
39196;SDS011;42889;51.112;13.772;2022-07-05T12:18:45;1.58;;;0.30;;
39196;SDS011;42889;51.112;13.772;2022-07-05T12:21:13;2.78;;;0.35;;
39196;SDS011;42889;51.112;13.772;2022-07-05T12:23:43;2.08;;;0.20;;
39196;SDS011;42889;51.112;13.772;2022-07-05T12:26:11;0.90;;;0.20;;
39196;SDS011;42889;51.112;13.772;2022-07-05T12:28:39;1.60;;;0.22;;
39196;SDS011;42889;51.112;13.772;2022-07-05T12:31:14;1.23;;;0.20;;
39196;SDS011;42889;51.112;13.772;2022-07-05T12:33:48;3.60;;;0.40;;
39196;SDS011;42889;51.112;13.772;2022-07-05T12:36:17;1.10;;;0.20;;
39196;SDS011;42889;51.112;13.772;2022-07-05T12:38:45;1.60;;;0.20;;
39196;SDS011;42889;51.112;13.772;2022-07-05T12:41:12;1.27;;;0.20;;
39196;SDS011;42889;51.112;13.772;2022-07-05T12:43:54;2.85;;;0.30;;
39196;SDS011;42889;51.112;13.772;2022-07-05T12:46:34;1.13;;;0.15;;
39196;SDS011;42889;51.112;13.772;2022-07-05T12:49:09;1.35;;;0.20;;
39196;SDS011;42889;51.112;13.772;2022-07-05T12:51:38;1.63;;;0.20;;
39196;SDS011;42889;51.112;13.772;2022-07-05T12:54:06;1.45;;;0.20;;
39196;SDS011;42889;51.112;13.772;2022-07-05T12:56:53;1.30;;;0.28;;
39196;SDS011;42889;51.112;13.772;2022-07-05T13:02:35;2.70;;;0.20;;
39196;SDS011;42889;51.112;13.772;2022-07-05T13:05:09;2.67;;;0.30;;
39196;SDS011;42889;51.112;13.772;2022-07-05T13:07:50;1.35;;;0.20;;
39196;SDS011;42889;51.112;13.772;2022-07-05T13:10:20;2.88;;;0.28;;
39196;SDS011;42889;51.112;13.772;2022-07-05T13:12:48;1.43;;;0.20;;
39196;SDS011;42889;51.112;13.772;2022-07-05T13:15:16;2.60;;;0.40;;
39196;SDS011;42889;51.112;13.772;2022-07-05T13:17:44;2.88;;;0.30;;
39196;SDS011;42889;51.112;13.772;2022-07-05T13:20:15;3.25;;;0.20;;
39196;SDS011;42889;51.112;13.772;2022-07-05T13:22:46;1.63;;;0.20;;
39196;SDS011;42889;51.112;13.772;2022-07-05T13:25:13;1.23;;;0.20;;
39196;SDS011;42889;51.112;13.772;2022-07-05T13:27:40;2.35;;;0.20;;
39196;SDS011;42889;51.112;13.772;2022-07-05T13:30:07;2.38;;;0.40;;
39196;SDS011;42889;51.112;13.772;2022-07-05T13:32:34;1.83;;;0.30;;
39196;SDS011;42889;51.112;13.772;2022-07-05T13:35:01;7.68;;;0.30;;
39196;SDS011;42889;51.112;13.772;2022-07-05T13:37:28;2.58;;;0.40;;
39196;SDS011;42889;51.112;13.772;2022-07-05T13:39:54;1.95;;;0.40;;
39196;SDS011;42889;51.112;13.772;2022-07-05T13:42:21;1.88;;;0.20;;
39196;SDS011;42889;51.112;13.772;2022-07-05T13:44:48;1.92;;;0.20;;
39196;SDS011;42889;51.112;13.772;2022-07-05T13:47:14;1.77;;;0.30;;
39196;SDS011;42889;51.112;13.772;2022-07-05T13:49:41;1.65;;;0.22;;
39196;SDS011;42889;51.112;13.772;2022-07-05T13:52:08;1.45;;;0.20;;
39196;SDS011;42889;51.112;13.772;2022-07-05T13:54:35;4.28;;;0.30;;
39196;SDS011;42889;51.112;13.772;2022-07-05T13:57:02;2.78;;;0.40;;
39196;SDS011;42889;51.112;13.772;2022-07-05T13:59:29;2.65;;;0.30;;
39196;SDS011;42889;51.112;13.772;2022-07-05T14:01:56;2.08;;;0.30;;
39196;SDS011;42889;51.112;13.772;2022-07-05T14:04:23;5.85;;;0.43;;
39196;SDS011;42889;51.112;13.772;2022-07-05T14:06:51;1.50;;;0.30;;
39196;SDS011;42889;51.112;13.772;2022-07-05T14:09:18;6.57;;;0.57;;
39196;SDS011;42889;51.112;13.772;2022-07-05T14:11:51;3.40;;;0.38;;
39196;SDS011;42889;51.112;13.772;2022-07-05T14:14:18;1.83;;;0.40;;
39196;SDS011;42889;51.112;13.772;2022-07-05T14:16:44;5.05;;;0.47;;
39196;SDS011;42889;51.112;13.772;2022-07-05T14:19:11;3.33;;;0.40;;
39196;SDS011;42889;51.112;13.772;2022-07-05T14:21:38;3.45;;;0.40;;
39196;SDS011;42889;51.112;13.772;2022-07-05T14:24:05;1.20;;;0.38;;
39196;SDS011;42889;51.112;13.772;2022-07-05T14:26:32;2.63;;;0.40;;
39196;SDS011;42889;51.112;13.772;2022-07-05T14:28:59;3.80;;;0.43;;
39196;SDS011;42889;51.112;13.772;2022-07-05T14:31:28;2.75;;;0.32;;
39196;SDS011;42889;51.112;13.772;2022-07-05T14:33:58;2.35;;;0.40;;
39196;SDS011;42889;51.112;13.772;2022-07-05T14:36:24;3.10;;;0.30;;
39196;SDS011;42889;51.112;13.772;2022-07-05T14:38:51;3.17;;;0.40;;
39196;SDS011;42889;51.112;13.772;2022-07-05T14:41:17;2.00;;;0.40;;
39196;SDS011;42889;51.112;13.772;2022-07-05T14:43:44;2.17;;;0.40;;
39196;SDS011;42889;51.112;13.772;2022-07-05T14:46:10;1.77;;;0.40;;
39196;SDS011;42889;51.112;13.772;2022-07-05T14:48:44;5.03;;;0.30;;
39196;SDS011;42889;51.112;13.772;2022-07-05T14:51:11;3.42;;;0.40;;
39196;SDS011;42889;51.112;13.772;2022-07-05T14:53:38;1.90;;;0.40;;
39196;SDS011;42889;51.112;13.772;2022-07-05T14:56:04;2.90;;;0.40;;
39196;SDS011;42889;51.112;13.772;2022-07-05T14:58:31;1.30;;;0.30;;
39196;SDS011;42889;51.112;13.772;2022-07-05T15:00:58;2.00;;;0.30;;
39196;SDS011;42889;51.112;13.772;2022-07-05T15:03:25;3.40;;;0.50;;
39196;SDS011;42889;51.112;13.772;2022-07-05T15:05:52;2.60;;;0.40;;
39196;SDS011;42889;51.112;13.772;2022-07-05T15:08:19;2.15;;;0.40;;
39196;SDS011;42889;51.112;13.772;2022-07-05T15:10:46;2.13;;;0.40;;
39196;SDS011;42889;51.112;13.772;2022-07-05T15:13:14;2.05;;;0.35;;
39196;SDS011;42889;51.112;13.772;2022-07-05T15:15:41;2.35;;;0.40;;
39196;SDS011;42889;51.112;13.772;2022-07-05T15:18:08;4.63;;;0.43;;
39196;SDS011;42889;51.112;13.772;2022-07-05T15:20:34;1.70;;;0.50;;